Time;durP1;ratioP1;P1;durP2;ratioP2;P2;SDS_P1;SDS_P2;PMS_P1;PMS_P2;Temp;Humidity;BMP_temperature;BMP_pressure;BME280_temperature;BME280_humidity;BME280_pressure;Samples;Min_cycle;Max_cycle;Signal;HPM_P1;HPM_P2
2021/01/15 00:00:01;;;;;;;10.48;7.43;;;;;;;;;;5084776;28;20037;-88
2021/01/15 00:02:28;;;;;;;9.88;7.40;;;;;;;;;;5084953;28;20041;-89
2021/01/15 00:04:54;;;;;;;8.02;6.70;;;;;;;;;;5086321;28;20034;-88
2021/01/15 00:07:21;;;;;;;9.80;7.30;;;;;;;;;;5087672;28;20041;-87
2021/01/15 00:09:50;;;;;;;9.32;6.57;;;;;;;;;;5088459;28;20040;-88
2021/01/15 00:12:17;;;;;;;11.10;7.63;;;;;;;;;;5087853;28;20036;-89
2021/01/15 00:14:54;;;;;;;8.32;7.40;;;;;;;;;;5082978;28;20034;-89
2021/01/15 00:17:22;;;;;;;10.52;7.47;;;;;;;;;;5052436;28;20073;-89
2021/01/15 00:19:49;;;;;;;10.43;6.55;;;;;;;;;;5102855;28;20063;-90
2021/01/15 00:22:21;;;;;;;9.13;6.90;;;;;;;;;;5084677;28;20036;-89
2021/01/15 00:24:47;;;;;;;10.38;7.75;;;;;;;;;;5101767;28;20032;-90
2021/01/15 00:27:14;;;;;;;10.88;6.43;;;;;;;;;;5101637;28;20339;-89
2021/01/15 00:29:43;;;;;;;8.82;6.38;;;;;;;;;;5101550;28;20055;-89
2021/01/15 00:32:12;;;;;;;;;;;;;;;;;;5086673;28;20030;-89
2021/01/15 00:34:39;;;;;;;11.32;7.18;;;;;;;;;;5088264;28;19909;-89
2021/01/15 00:37:08;;;;;;;9.63;7.85;;;;;;;;;;5018290;28;20168;-89
2021/01/15 00:39:34;;;;;;;8.27;6.93;;;;;;;;;;5019199;28;20034;-88
2021/01/15 00:42:00;;;;;;;10.88;7.35;;;;;;;;;;5086008;28;20158;-89
2021/01/15 00:44:27;;;;;;;9.63;7.35;;;;;;;;;;5017764;28;20045;-88
2021/01/15 00:46:53;;;;;;;8.70;6.47;;;;;;;;;;5088134;28;20033;-89
2021/01/15 00:49:20;;;;;;;12.57;7.15;;;;;;;;;;5020933;28;20033;-88
2021/01/15 00:51:50;;;;;;;8.45;6.63;;;;;;;;;;5087240;28;20030;-88
2021/01/15 00:54:31;;;;;;;10.60;7.55;;;;;;;;;;5087621;28;20087;-89
2021/01/15 00:57:02;;;;;;;9.65;7.22;;;;;;;;;;5087622;28;20109;-89
2021/01/15 00:59:28;;;;;;;10.55;7.22;;;;;;;;;;5089068;28;20037;-90
2021/01/15 01:01:54;;;;;;;12.75;7.32;;;;;;;;;;5086539;28;20083;-90
2021/01/15 01:04:21;;;;;;;9.35;6.63;;;;;;;;;;5018533;28;20029;-90
2021/01/15 01:06:47;;;;;;;9.77;6.70;;;;;;;;;;5087722;28;20034;-89
2021/01/15 01:09:13;;;;;;;11.93;7.75;;;;;;;;;;5017962;28;20046;-89
2021/01/15 01:11:39;;;;;;;9.02;7.05;;;;;;;;;;5085315;28;20041;-88
2021/01/15 01:14:06;;;;;;;9.63;7.20;;;;;;;;;;5075741;28;20027;-88
2021/01/15 01:16:36;;;;;;;10.55;8.15;;;;;;;;;;5084190;28;20035;-89
2021/01/15 01:19:10;;;;;;;8.48;6.43;;;;;;;;;;5083570;28;20028;-89
2021/01/15 01:21:37;;;;;;;7.97;7.05;;;;;;;;;;5075685;28;20331;-87
2021/01/15 01:24:03;;;;;;;9.38;7.20;;;;;;;;;;5082248;28;20035;-88
2021/01/15 01:26:29;;;;;;;9.82;7.55;;;;;;;;;;5068122;28;20449;-88
2021/01/15 01:28:58;;;;;;;11.00;7.15;;;;;;;;;;5001277;28;20031;-89
2021/01/15 01:31:25;;;;;;;10.05;6.85;;;;;;;;;;5066677;28;20042;-88
2021/01/15 01:33:52;;;;;;;9.23;7.07;;;;;;;;;;4999659;28;20026;-89
2021/01/15 01:36:18;;;;;;;10.40;6.72;;;;;;;;;;5067470;28;20041;-88
2021/01/15 01:38:45;;;;;;;10.80;7.97;;;;;;;;;;5067991;28;20037;-88
2021/01/15 01:41:20;;;;;;;10.90;7.30;;;;;;;;;;5048481;28;20128;-89
2021/01/15 01:43:46;;;;;;;11.90;7.38;;;;;;;;;;5009672;28;20056;-87
2021/01/15 01:46:13;;;;;;;10.68;7.53;;;;;;;;;;5067958;28;20022;-89
2021/01/15 01:48:46;;;;;;;12.52;8.10;;;;;;;;;;5083398;28;20122;-88
2021/01/15 01:51:12;;;;;;;11.48;7.25;;;;;;;;;;5078489;28;20045;-88
2021/01/15 01:53:39;;;;;;;11.98;7.45;;;;;;;;;;5102188;28;20028;-89
2021/01/15 01:56:08;;;;;;;8.43;7.50;;;;;;;;;;5100143;28;20039;-88
2021/01/15 01:58:42;;;;;;;9.88;7.40;;;;;;;;;;5083873;28;20124;-90
2021/01/15 02:01:08;;;;;;;10.38;7.53;;;;;;;;;;5082854;28;20044;-89
2021/01/15 02:03:34;;;;;;;8.93;7.38;;;;;;;;;;5102195;28;20028;-86
2021/01/15 02:06:03;;;;;;;9.23;7.68;;;;;;;;;;5084528;28;20035;-88
2021/01/15 02:08:30;;;;;;;12.20;7.93;;;;;;;;;;5084093;28;20028;-88
2021/01/15 02:10:56;;;;;;;11.15;7.53;;;;;;;;;;5084239;28;20086;-87
2021/01/15 02:13:27;;;;;;;14.90;8.50;;;;;;;;;;5083547;28;20020;-88
2021/01/15 02:16:03;;;;;;;10.35;8.20;;;;;;;;;;5083468;28;20032;-88
2021/01/15 02:18:39;;;;;;;11.70;8.35;;;;;;;;;;5083691;28;20055;-90
2021/01/15 02:21:27;;;;;;;10.75;8.43;;;;;;;;;;5084510;28;20044;-88
2021/01/15 02:23:58;;;;;;;10.32;8.38;;;;;;;;;;5102841;28;20032;-88
2021/01/15 02:26:38;;;;;;;11.63;8.15;;;;;;;;;;5102016;28;20064;-88
2021/01/15 02:29:08;;;;;;;10.13;7.75;;;;;;;;;;5083651;28;20035;-88
2021/01/15 02:31:40;;;;;;;9.52;7.80;;;;;;;;;;5083865;28;20036;-87
2021/01/15 02:34:22;;;;;;;12.43;8.55;;;;;;;;;;5085088;28;20024;-88
2021/01/15 02:36:57;;;;;;;14.57;8.80;;;;;;;;;;5085803;28;20108;-88
2021/01/15 02:39:36;;;;;;;10.85;8.93;;;;;;;;;;5085865;28;20028;-87
2021/01/15 02:42:02;;;;;;;13.02;8.80;;;;;;;;;;5087013;28;20039;-87
2021/01/15 02:44:29;;;;;;;11.50;8.05;;;;;;;;;;5107152;28;20024;-87
2021/01/15 02:46:56;;;;;;;12.45;9.00;;;;;;;;;;5116935;28;20020;-88
2021/01/15 02:49:23;;;;;;;12.45;9.63;;;;;;;;;;5099933;28;20036;-88
2021/01/15 02:51:49;;;;;;;11.32;9.10;;;;;;;;;;5117155;28;20029;-88
2021/01/15 02:54:15;;;;;;;11.52;8.93;;;;;;;;;;5117296;28;20016;-88
2021/01/15 02:56:42;;;;;;;13.02;8.85;;;;;;;;;;5099802;28;20016;-88
2021/01/15 02:59:08;;;;;;;12.73;8.75;;;;;;;;;;5100091;28;20091;-89
2021/01/15 03:01:57;;;;;;;14.13;10.18;;;;;;;;;;5099775;28;20036;-86
2021/01/15 03:04:23;;;;;;;;;;;;;;;;;;5099617;28;20100;-89
2021/01/15 03:06:57;;;;;;;14.38;10.13;;;;;;;;;;5098740;28;20019;-87
2021/01/15 03:09:26;;;;;;;10.93;8.43;;;;;;;;;;5097476;28;20058;-88
2021/01/15 03:11:52;;;;;;;11.57;10.38;;;;;;;;;;5115088;28;20108;-87
2021/01/15 03:14:19;;;;;;;11.45;9.43;;;;;;;;;;5085841;28;20038;-86
2021/01/15 03:16:46;;;;;;;12.73;10.02;;;;;;;;;;5085070;28;20054;-88
2021/01/15 03:19:13;;;;;;;12.23;9.13;;;;;;;;;;5089923;28;20026;-89
2021/01/15 03:21:39;;;;;;;14.90;10.45;;;;;;;;;;5088972;28;20038;-88
2021/01/15 03:24:07;;;;;;;14.60;10.07;;;;;;;;;;5088074;28;20030;-88
2021/01/15 03:26:36;;;;;;;12.60;9.88;;;;;;;;;;5019857;28;20103;-89
2021/01/15 03:29:02;;;;;;;14.68;10.65;;;;;;;;;;5086129;28;20034;-88
2021/01/15 03:31:28;;;;;;;13.32;10.65;;;;;;;;;;5019175;28;20053;-88
2021/01/15 03:33:54;;;;;;;17.65;10.60;;;;;;;;;;5086674;28;20040;-89
2021/01/15 03:36:20;;;;;;;13.30;11.45;;;;;;;;;;5084043;28;20036;-89
2021/01/15 03:38:52;;;;;;;15.43;11.70;;;;;;;;;;5085607;28;20026;-91
2021/01/15 03:41:19;;;;;;;15.65;11.07;;;;;;;;;;5087807;28;20050;-86
2021/01/15 03:43:45;;;;;;;18.50;11.10;;;;;;;;;;5087765;28;20029;-88
2021/01/15 03:46:12;;;;;;;15.02;11.23;;;;;;;;;;5089191;28;20129;-87
2021/01/15 03:48:40;;;;;;;13.25;10.68;;;;;;;;;;5088182;28;20034;-88
2021/01/15 03:51:06;;;;;;;14.02;11.20;;;;;;;;;;5087278;28;20026;-90
2021/01/15 03:53:32;;;;;;;15.23;11.77;;;;;;;;;;5087267;28;20034;-89
2021/01/15 03:55:58;;;;;;;15.68;12.27;;;;;;;;;;5089527;28;20037;-88
2021/01/15 03:58:24;;;;;;;20.20;13.48;;;;;;;;;;5088044;28;20026;-87
2021/01/15 04:00:50;;;;;;;15.93;12.63;;;;;;;;;;5019315;28;20034;-86
2021/01/15 04:03:17;;;;;;;15.77;12.10;;;;;;;;;;5087416;28;20397;-88
2021/01/15 04:05:43;;;;;;;15.43;12.45;;;;;;;;;;5020286;28;20025;-89
2021/01/15 04:08:12;;;;;;;16.00;12.60;;;;;;;;;;5087284;28;20060;-87
2021/01/15 04:10:38;;;;;;;;;;;;;;;;;;5088086;28;20033;-88
2021/01/15 04:13:04;;;;;;;17.27;13.02;;;;;;;;;;5088303;28;19905;-87
2021/01/15 04:15:30;;;;;;;17.23;13.02;;;;;;;;;;5019897;28;20030;-86
2021/01/15 04:18:00;;;;;;;16.70;12.15;;;;;;;;;;5088786;28;20322;-87
2021/01/15 04:20:26;;;;;;;18.05;13.15;;;;;;;;;;5089567;28;20026;-87
2021/01/15 04:22:52;;;;;;;17.63;12.23;;;;;;;;;;5087243;28;20038;-85
2021/01/15 04:25:19;;;;;;;16.58;13.00;;;;;;;;;;5087597;28;20072;-88
2021/01/15 04:27:45;;;;;;;19.17;14.18;;;;;;;;;;5087594;28;20065;-89
2021/01/15 04:30:14;;;;;;;17.70;13.88;;;;;;;;;;5090134;28;20025;-89
2021/01/15 04:32:50;;;;;;;17.25;13.85;;;;;;;;;;5088768;28;20409;-90
2021/01/15 04:35:17;;;;;;;19.45;14.20;;;;;;;;;;5087851;28;20330;-87
2021/01/15 04:37:47;;;;;;;18.30;13.65;;;;;;;;;;5021311;28;20025;-89
2021/01/15 04:40:20;;;;;;;17.77;13.65;;;;;;;;;;5091640;28;20038;-89
2021/01/15 04:42:47;;;;;;;17.65;14.27;;;;;;;;;;5090478;28;20189;-89
2021/01/15 04:45:14;;;;;;;18.23;14.48;;;;;;;;;;5089580;28;20069;-90
2021/01/15 04:47:42;;;;;;;22.23;15.00;;;;;;;;;;5087997;28;20086;-87
2021/01/15 04:50:15;;;;;;;19.88;14.88;;;;;;;;;;5018281;28;20040;-88
2021/01/15 04:52:51;;;;;;;23.48;16.35;;;;;;;;;;5088776;28;20417;-88
2021/01/15 04:55:19;;;;;;;18.20;14.85;;;;;;;;;;5018188;28;20027;-88
2021/01/15 04:57:48;;;;;;;21.23;15.75;;;;;;;;;;5019614;28;20022;-88
2021/01/15 05:00:15;;;;;;;21.50;15.82;;;;;;;;;;5086633;28;20114;-89
2021/01/15 05:02:45;;;;;;;19.33;16.20;;;;;;;;;;5088781;28;20417;-89
2021/01/15 05:05:18;;;;;;;18.20;14.68;;;;;;;;;;5087484;28;20418;-89
2021/01/15 05:07:51;;;;;;;21.13;16.83;;;;;;;;;;5077980;28;20034;-87
2021/01/15 05:10:24;;;;;;;19.88;14.93;;;;;;;;;;5068369;28;20028;-89
2021/01/15 05:12:51;;;;;;;21.92;14.55;;;;;;;;;;5085803;28;20036;-88
2021/01/15 05:15:17;;;;;;;20.73;15.13;;;;;;;;;;5086259;28;20098;-89
2021/01/15 05:17:44;;;;;;;18.98;15.15;;;;;;;;;;5084412;28;20024;-88
2021/01/15 05:20:16;;;;;;;20.67;16.40;;;;;;;;;;5083005;28;20046;-89
2021/01/15 05:22:42;;;;;;;20.90;15.43;;;;;;;;;;5087434;28;20032;-90
2021/01/15 05:25:08;;;;;;;19.90;15.43;;;;;;;;;;5082927;28;20042;-87
2021/01/15 05:27:41;;;;;;;19.58;15.27;;;;;;;;;;5099780;28;20035;-89
2021/01/15 05:30:17;;;;;;;21.30;15.75;;;;;;;;;;5081878;28;20047;-87
2021/01/15 05:32:47;;;;;;;18.70;14.98;;;;;;;;;;5090899;28;20035;-88
2021/01/15 05:35:33;;;;;;;23.15;17.45;;;;;;;;;;5094578;28;20054;-87
2021/01/15 05:38:08;;;;;;;20.35;15.55;;;;;;;;;;5097558;28;20404;-88
2021/01/15 05:40:42;;;;;;;19.75;15.57;;;;;;;;;;5015921;28;20034;-87
2021/01/15 05:43:21;;;;;;;22.60;15.85;;;;;;;;;;5084334;28;20169;-88
2021/01/15 05:46:27;;;;;;;20.33;16.45;;;;;;;;;;5085279;28;20109;-87
2021/01/15 05:48:53;;;;;;;20.30;15.43;;;;;;;;;;5016737;28;20042;-88
2021/01/15 05:51:30;;;;;;;20.65;15.27;;;;;;;;;;5083511;28;20326;-89
2021/01/15 05:54:02;;;;;;;18.63;15.38;;;;;;;;;;5015616;28;20061;-89
2021/01/15 05:56:45;;;;;;;21.35;15.57;;;;;;;;;;5084909;28;20053;-89
2021/01/15 05:59:18;;;;;;;19.80;15.43;;;;;;;;;;5085589;28;20038;-88
2021/01/15 06:01:44;;;;;;;18.80;14.55;;;;;;;;;;5083391;28;20132;-87
2021/01/15 06:04:13;;;;;;;21.13;16.20;;;;;;;;;;5016024;28;20053;-89
2021/01/15 06:06:49;;;;;;;;;;;;;;;;;;5072898;28;20049;-90
2021/01/15 06:09:22;;;;;;;22.83;16.00;;;;;;;;;;5080110;28;19993;-89
2021/01/15 06:11:51;;;;;;;24.73;16.65;;;;;;;;;;5113319;28;20055;-88
2021/01/15 06:14:18;;;;;;;18.40;14.05;;;;;;;;;;5118172;28;20044;-88
2021/01/15 06:16:44;;;;;;;22.33;15.18;;;;;;;;;;5101794;28;20035;-88
2021/01/15 06:19:11;;;;;;;20.98;15.15;;;;;;;;;;5100811;28;20023;-88
2021/01/15 06:21:40;;;;;;;18.38;15.35;;;;;;;;;;5100761;28;20121;-89
2021/01/15 06:24:20;;;;;;;17.75;14.38;;;;;;;;;;5101727;28;20026;-90
2021/01/15 06:27:00;;;;;;;19.95;15.43;;;;;;;;;;5100524;28;20055;-90
2021/01/15 06:29:27;;;;;;;21.33;14.30;;;;;;;;;;5061546;28;20035;-89
2021/01/15 06:31:54;;;;;;;22.02;15.85;;;;;;;;;;5078511;28;20430;-89
2021/01/15 06:34:24;;;;;;;18.95;15.07;;;;;;;;;;5062436;28;20060;-89
2021/01/15 06:37:03;;;;;;;22.52;15.15;;;;;;;;;;5062057;28;20072;-89
2021/01/15 06:39:29;;;;;;;22.92;16.15;;;;;;;;;;5062718;28;20059;-89
2021/01/15 06:42:07;;;;;;;20.02;15.85;;;;;;;;;;5061367;28;20093;-89
2021/01/15 06:44:37;;;;;;;20.88;16.60;;;;;;;;;;5062383;28;20029;-88
2021/01/15 06:47:12;;;;;;;22.13;15.23;;;;;;;;;;5081101;28;20035;-89
2021/01/15 06:49:43;;;;;;;21.48;14.88;;;;;;;;;;5080362;28;20074;-89
2021/01/15 06:52:13;;;;;;;19.55;15.25;;;;;;;;;;5099882;28;20122;-89
2021/01/15 06:54:46;;;;;;;19.13;15.32;;;;;;;;;;5095583;28;20073;-87
2021/01/15 06:57:22;;;;;;;17.85;14.60;;;;;;;;;;5102609;28;20558;-88
2021/01/15 07:00:20;;;;;;;19.00;13.57;;;;;;;;;;5100318;28;20031;-87
2021/01/15 07:02:54;;;;;;;20.95;14.65;;;;;;;;;;5099127;28;20060;-88
2021/01/15 07:05:41;;;;;;;19.55;14.43;;;;;;;;;;5094432;28;20027;-87
2021/01/15 07:08:10;;;;;;;20.55;15.40;;;;;;;;;;5079170;28;20103;-89
2021/01/15 07:10:40;;;;;;;21.85;16.77;;;;;;;;;;5075612;28;20040;-89
2021/01/15 07:13:09;;;;;;;20.48;15.55;;;;;;;;;;5085753;28;20210;-88
2021/01/15 07:15:40;;;;;;;18.77;15.13;;;;;;;;;;5089574;28;20105;-89
2021/01/15 07:18:11;;;;;;;18.63;14.02;;;;;;;;;;5116461;28;20051;-89
2021/01/15 07:20:44;;;;;;;18.30;14.60;;;;;;;;;;5086267;28;20130;-89
2021/01/15 07:23:15;;;;;;;20.45;15.45;;;;;;;;;;5085333;28;20036;-89
2021/01/15 07:25:57;;;;;;;19.38;13.88;;;;;;;;;;5100657;28;20031;-88
2021/01/15 07:28:23;;;;;;;20.63;14.23;;;;;;;;;;5090037;28;20035;-90
2021/01/15 07:30:49;;;;;;;19.83;14.55;;;;;;;;;;5094611;28;20042;-90
2021/01/15 07:33:16;;;;;;;18.30;14.25;;;;;;;;;;5095687;28;20061;-90
2021/01/15 07:35:42;;;;;;;21.73;16.05;;;;;;;;;;5092635;28;20059;-90
2021/01/15 07:38:08;;;;;;;20.00;15.02;;;;;;;;;;5086104;28;20035;-89
2021/01/15 07:40:35;;;;;;;18.20;13.75;;;;;;;;;;5092699;28;20038;-89
2021/01/15 07:43:02;;;;;;;21.55;14.95;;;;;;;;;;5093415;28;20054;-89
2021/01/15 07:45:31;;;;;;;19.05;14.65;;;;;;;;;;5095693;28;20032;-89
2021/01/15 07:48:01;;;;;;;17.67;13.40;;;;;;;;;;5089240;28;20123;-89
2021/01/15 07:50:33;;;;;;;20.42;15.00;;;;;;;;;;5074882;28;20056;-88
2021/01/15 07:53:03;;;;;;;20.10;14.73;;;;;;;;;;5049824;28;20028;-89
2021/01/15 07:55:29;;;;;;;;;;;;;;;;;;5059005;28;20039;-88
2021/01/15 07:58:18;;;;;;;21.90;13.32;;;;;;;;;;5088708;28;19955;-89
2021/01/15 08:00:48;;;;;;;18.52;14.20;;;;;;;;;;5070423;28;20122;-89
2021/01/15 08:03:15;;;;;;;19.98;15.15;;;;;;;;;;5097876;28;20137;-88
2021/01/15 08:05:43;;;;;;;18.98;14.65;;;;;;;;;;5081625;28;20067;-87
2021/01/15 08:08:12;;;;;;;23.45;15.43;;;;;;;;;;5088905;28;20475;-88
2021/01/15 08:10:46;;;;;;;18.92;14.48;;;;;;;;;;5077875;28;20042;-90
2021/01/15 08:13:18;;;;;;;18.25;13.70;;;;;;;;;;5091023;28;20028;-88
2021/01/15 08:15:45;;;;;;;18.75;13.30;;;;;;;;;;5080473;28;20046;-88
2021/01/15 08:18:11;;;;;;;19.88;15.57;;;;;;;;;;5060819;28;20081;-89
2021/01/15 08:20:58;;;;;;;18.85;13.65;;;;;;;;;;5071593;28;20112;-88
2021/01/15 08:23:27;;;;;;;19.20;13.73;;;;;;;;;;5096156;28;20036;-89
2021/01/15 08:26:05;;;;;;;21.77;15.13;;;;;;;;;;5072520;28;20038;-88
2021/01/15 08:28:33;;;;;;;19.65;14.05;;;;;;;;;;5065340;28;20066;-88
2021/01/15 08:31:07;;;;;;;18.37;14.73;;;;;;;;;;5079487;28;20046;-88
2021/01/15 08:33:34;;;;;;;19.10;14.52;;;;;;;;;;5084713;28;20130;-89
2021/01/15 08:36:02;;;;;;;20.00;14.68;;;;;;;;;;5106213;28;20043;-87
2021/01/15 08:38:29;;;;;;;17.10;13.25;;;;;;;;;;5088907;28;20111;-88
2021/01/15 08:40:59;;;;;;;18.35;14.30;;;;;;;;;;5083806;28;20052;-88
2021/01/15 08:43:26;;;;;;;23.55;15.60;;;;;;;;;;5098544;28;20024;-89
2021/01/15 08:45:54;;;;;;;17.45;13.25;;;;;;;;;;5077881;28;20024;-87
2021/01/15 08:48:24;;;;;;;18.20;12.95;;;;;;;;;;5087896;28;20022;-87
2021/01/15 08:50:54;;;;;;;18.17;14.15;;;;;;;;;;5084248;28;20075;-88
2021/01/15 08:53:20;;;;;;;;;;;;;;;;;;5092189;28;20078;-87
2021/01/15 08:55:47;;;;;;;17.33;12.82;;;;;;;;;;5104076;28;19912;-87
2021/01/15 08:58:13;;;;;;;17.63;14.27;;;;;;;;;;5099325;28;20106;-89
2021/01/15 09:00:39;;;;;;;18.20;13.75;;;;;;;;;;5086735;28;20036;-89
2021/01/15 09:03:10;;;;;;;17.17;13.60;;;;;;;;;;5080709;28;20124;-89
2021/01/15 09:05:40;;;;;;;17.88;13.50;;;;;;;;;;5084681;28;20127;-89
2021/01/15 09:08:06;;;;;;;20.25;14.02;;;;;;;;;;5098578;28;20047;-87
2021/01/15 09:10:32;;;;;;;18.70;14.52;;;;;;;;;;5097824;28;20074;-89
2021/01/15 09:13:03;;;;;;;18.08;13.52;;;;;;;;;;5100914;28;20159;-89
2021/01/15 09:15:33;;;;;;;18.48;14.32;;;;;;;;;;5086950;28;20055;-89
2021/01/15 09:17:59;;;;;;;19.58;13.07;;;;;;;;;;5078347;28;20032;-89
2021/01/15 09:20:26;;;;;;;19.65;13.68;;;;;;;;;;5086524;28;20099;-89
2021/01/15 09:22:55;;;;;;;18.08;13.45;;;;;;;;;;5094342;28;20031;-89
2021/01/15 09:25:25;;;;;;;17.48;13.93;;;;;;;;;;5076750;28;20107;-89
2021/01/15 09:28:16;;;;;;;18.60;13.30;;;;;;;;;;5094036;28;20031;-89
2021/01/15 09:30:42;;;;;;;17.60;13.57;;;;;;;;;;5087672;28;20028;-89
2021/01/15 09:33:09;;;;;;;15.90;13.60;;;;;;;;;;5083506;28;20032;-89
2021/01/15 09:35:35;;;;;;;18.15;14.32;;;;;;;;;;5089068;28;20035;-89
2021/01/15 09:38:04;;;;;;;18.85;15.20;;;;;;;;;;5078578;28;20057;-89
2021/01/15 09:40:30;;;;;;;18.75;14.75;;;;;;;;;;5074776;28;20143;-89
2021/01/15 09:42:56;;;;;;;18.27;13.90;;;;;;;;;;5082736;28;20367;-89
2021/01/15 09:45:22;;;;;;;18.92;13.68;;;;;;;;;;5098492;28;20047;-88
2021/01/15 09:47:49;;;;;;;18.08;13.20;;;;;;;;;;5008155;28;20062;-89
2021/01/15 09:50:15;;;;;;;19.55;13.95;;;;;;;;;;5072518;28;20430;-88
2021/01/15 09:52:41;;;;;;;17.38;13.65;;;;;;;;;;5095850;28;20032;-86
2021/01/15 09:55:08;;;;;;;21.17;13.65;;;;;;;;;;5078604;28;20329;-88
2021/01/15 09:57:43;;;;;;;19.92;13.90;;;;;;;;;;5082242;28;20032;-88
2021/01/15 10:00:09;;;;;;;17.88;13.95;;;;;;;;;;5095025;28;20093;-89
2021/01/15 10:02:38;;;;;;;19.15;14.18;;;;;;;;;;5096392;28;20047;-89
2021/01/15 10:05:05;;;;;;;18.02;14.05;;;;;;;;;;5084436;28;20039;-88
2021/01/15 10:07:37;;;;;;;20.27;14.00;;;;;;;;;;5076168;28;20036;-87
2021/01/15 10:10:07;;;;;;;17.30;13.88;;;;;;;;;;5084756;28;20028;-88
2021/01/15 10:12:33;;;;;;;16.58;12.93;;;;;;;;;;5071997;28;20028;-88
2021/01/15 10:14:59;;;;;;;23.25;13.80;;;;;;;;;;5077697;28;20066;-87
2021/01/15 10:17:25;;;;;;;17.33;13.38;;;;;;;;;;5074273;28;20042;-89
2021/01/15 10:19:54;;;;;;;17.90;13.30;;;;;;;;;;5094031;28;20027;-88
2021/01/15 10:22:21;;;;;;;18.83;14.80;;;;;;;;;;5093562;28;20355;-89
2021/01/15 10:24:47;;;;;;;18.58;14.15;;;;;;;;;;5083828;28;20031;-89
2021/01/15 10:27:13;;;;;;;19.05;14.05;;;;;;;;;;5086621;28;20028;-89
2021/01/15 10:30:18;;;;;;;17.50;12.48;;;;;;;;;;5062994;28;20031;-89
2021/01/15 10:32:48;;;;;;;17.83;12.98;;;;;;;;;;5017585;28;20091;-90
2021/01/15 10:35:14;;;;;;;22.85;13.88;;;;;;;;;;5093647;28;20066;-90
2021/01/15 10:37:41;;;;;;;16.45;13.00;;;;;;;;;;5090347;28;20024;-89
2021/01/15 10:40:08;;;;;;;18.88;13.60;;;;;;;;;;5077783;28;20091;-89
2021/01/15 10:42:38;;;;;;;21.45;14.10;;;;;;;;;;5071310;28;20044;-90
2021/01/15 10:45:05;;;;;;;18.23;13.10;;;;;;;;;;5095305;28;20039;-87
2021/01/15 10:47:31;;;;;;;15.77;13.13;;;;;;;;;;5082377;28;20075;-87
2021/01/15 10:49:57;;;;;;;16.65;12.73;;;;;;;;;;5095574;28;20036;-88
2021/01/15 10:52:26;;;;;;;16.70;12.07;;;;;;;;;;5104945;28;20028;-88
2021/01/15 10:57:44;;;;;;;17.08;12.88;;;;;;;;;;5083119;28;20040;-88
2021/01/15 11:00:14;;;;;;;14.00;11.57;;;;;;;;;;5038079;28;20078;-88
2021/01/15 11:02:41;;;;;;;16.25;12.52;;;;;;;;;;5082450;28;20135;-87
2021/01/15 11:05:11;;;;;;;16.52;13.23;;;;;;;;;;5078834;28;20020;-87
2021/01/15 11:07:37;;;;;;;16.75;12.70;;;;;;;;;;5078063;28;20040;-88
2021/01/15 11:10:04;;;;;;;20.77;14.50;;;;;;;;;;5082938;28;20078;-87
2021/01/15 11:12:32;;;;;;;16.20;12.65;;;;;;;;;;5038646;28;20034;-87
2021/01/15 11:15:25;;;;;;;15.77;12.17;;;;;;;;;;5070295;28;20038;-88
2021/01/15 11:17:52;;;;;;;16.48;12.63;;;;;;;;;;5082516;28;20122;-87
2021/01/15 11:20:19;;;;;;;18.83;14.25;;;;;;;;;;5093692;28;20074;-88
2021/01/15 11:22:46;;;;;;;17.85;12.15;;;;;;;;;;5085693;28;20032;-88
2021/01/15 11:25:16;;;;;;;14.38;12.10;;;;;;;;;;5083716;28;20073;-88
2021/01/15 11:27:51;;;;;;;17.42;12.60;;;;;;;;;;5089917;28;20019;-87
2021/01/15 11:30:18;;;;;;;16.13;12.43;;;;;;;;;;5083903;28;20028;-87
2021/01/15 11:32:44;;;;;;;18.73;11.90;;;;;;;;;;5093962;28;20024;-88
2021/01/15 11:35:19;;;;;;;18.00;13.43;;;;;;;;;;5105564;28;20028;-86
2021/01/15 11:37:48;;;;;;;14.90;12.48;;;;;;;;;;5084358;28;20036;-88
2021/01/15 11:40:17;;;;;;;;;;;;;;;;;;5086379;28;20038;-87
2021/01/15 11:42:43;;;;;;;16.02;11.88;;;;;;;;;;5095155;28;19915;-87
2021/01/15 11:45:10;;;;;;;15.48;12.23;;;;;;;;;;5091645;28;20450;-88
2021/01/15 11:47:42;;;;;;;18.85;11.93;;;;;;;;;;5081675;28;20115;-88
2021/01/15 11:50:18;;;;;;;21.25;14.60;;;;;;;;;;5081905;28;20036;-87
2021/01/15 11:52:45;;;;;;;16.05;13.38;;;;;;;;;;5078847;28;20107;-87
2021/01/15 11:55:12;;;;;;;22.00;14.63;;;;;;;;;;5097604;28;20038;-87
2021/01/15 11:57:44;;;;;;;20.55;13.90;;;;;;;;;;5088862;28;20073;-88
2021/01/15 12:00:11;;;;;;;21.95;15.32;;;;;;;;;;5080670;28;20043;-88
2021/01/15 12:02:37;;;;;;;23.77;14.85;;;;;;;;;;5084794;28;20046;-88
2021/01/15 12:05:12;;;;;;;19.23;13.90;;;;;;;;;;5082735;28;20036;-88
2021/01/15 12:07:41;;;;;;;22.67;14.93;;;;;;;;;;5081115;28;20028;-88
2021/01/15 12:10:19;;;;;;;22.73;14.50;;;;;;;;;;5090150;28;20069;-88
2021/01/15 12:12:45;;;;;;;18.80;13.20;;;;;;;;;;5094263;28;20032;-89
2021/01/15 12:15:11;;;;;;;18.75;14.70;;;;;;;;;;5075983;28;20054;-88
2021/01/15 12:17:37;;;;;;;26.05;15.90;;;;;;;;;;5083484;28;20028;-89
2021/01/15 12:20:04;;;;;;;17.92;14.50;;;;;;;;;;5112701;28;20028;-88
2021/01/15 12:22:30;;;;;;;18.05;13.55;;;;;;;;;;5088704;28;20085;-88
2021/01/15 12:25:01;;;;;;;19.95;15.30;;;;;;;;;;5107026;28;20020;-89
2021/01/15 12:27:30;;;;;;;20.73;15.15;;;;;;;;;;5082642;28;20039;-88
2021/01/15 12:30:04;;;;;;;20.60;14.52;;;;;;;;;;5099572;28;20032;-88
2021/01/15 12:32:30;;;;;;;20.33;16.00;;;;;;;;;;5083283;28;20056;-89
2021/01/15 12:35:06;;;;;;;19.15;14.30;;;;;;;;;;5088888;28;20032;-89
2021/01/15 12:37:35;;;;;;;21.52;15.38;;;;;;;;;;5087335;28;20032;-88
2021/01/15 12:40:01;;;;;;;;;;;;;;;;;;5108800;28;20316;-87
2021/01/15 12:42:27;;;;;;;21.27;14.85;;;;;;;;;;5071915;28;19916;-88
2021/01/15 12:44:57;;;;;;;20.25;14.98;;;;;;;;;;5082500;28;20435;-88
2021/01/15 12:47:23;;;;;;;19.63;14.23;;;;;;;;;;5084320;28;20031;-88
2021/01/15 12:49:49;;;;;;;22.67;16.80;;;;;;;;;;5069839;28;20043;-88
2021/01/15 12:52:19;;;;;;;22.58;14.75;;;;;;;;;;5082989;28;20024;-88
2021/01/15 12:54:45;;;;;;;23.27;15.25;;;;;;;;;;5106552;28;20035;-89
2021/01/15 12:57:11;;;;;;;22.05;15.63;;;;;;;;;;5092713;28;20122;-89
2021/01/15 12:59:37;;;;;;;22.52;16.05;;;;;;;;;;5083640;28;20043;-88
2021/01/15 13:02:03;;;;;;;21.35;15.90;;;;;;;;;;5084714;28;20126;-88
2021/01/15 13:04:30;;;;;;;21.20;15.25;;;;;;;;;;5053759;28;20039;-88
2021/01/15 13:06:56;;;;;;;22.73;15.57;;;;;;;;;;5076562;28;20103;-88
2021/01/15 13:09:25;;;;;;;20.45;15.15;;;;;;;;;;5084636;28;20035;-86
2021/01/15 13:11:54;;;;;;;23.58;15.60;;;;;;;;;;5086896;28;20019;-87
2021/01/15 13:14:21;;;;;;;;;;;;;;;;;;5110991;28;20393;-88
2021/01/15 13:16:56;;;;;;;22.13;15.02;;;;;;;;;;5090342;28;20238;-88
2021/01/15 13:19:22;;;;;;;20.33;15.00;;;;;;;;;;5091134;28;20027;-88
2021/01/15 13:21:50;;;;;;;20.83;15.10;;;;;;;;;;5086782;28;20046;-88
2021/01/15 13:24:19;;;;;;;20.13;14.90;;;;;;;;;;5094325;28;20024;-88
2021/01/15 13:26:48;;;;;;;;;;;;;;;;;;5090462;28;20032;-88
2021/01/15 13:29:15;;;;;;;22.63;15.07;;;;;;;;;;5108071;28;19950;-88
2021/01/15 13:31:41;;;;;;;19.38;15.63;;;;;;;;;;5086656;28;20032;-89
2021/01/15 13:34:07;;;;;;;21.52;15.38;;;;;;;;;;5107296;28;20035;-88
2021/01/15 13:36:36;;;;;;;21.00;14.02;;;;;;;;;;5086715;28;20047;-88
2021/01/15 13:39:03;;;;;;;19.70;15.15;;;;;;;;;;5100002;28;20028;-89
2021/01/15 13:41:37;;;;;;;20.33;14.93;;;;;;;;;;5071545;28;20044;-88
2021/01/15 13:44:03;;;;;;;20.75;15.02;;;;;;;;;;5085790;28;20013;-88
2021/01/15 13:46:29;;;;;;;19.83;15.15;;;;;;;;;;5083632;28;20477;-89
2021/01/15 13:48:55;;;;;;;21.00;15.52;;;;;;;;;;5079537;28;20465;-88
2021/01/15 13:51:21;;;;;;;20.00;14.85;;;;;;;;;;5085371;28;20024;-88
2021/01/15 13:53:52;;;;;;;18.08;13.88;;;;;;;;;;5078685;28;20103;-88
2021/01/15 13:56:19;;;;;;;19.90;13.98;;;;;;;;;;5101604;28;20351;-88
2021/01/15 13:58:45;;;;;;;19.20;14.77;;;;;;;;;;5102705;28;20096;-88
2021/01/15 14:01:11;;;;;;;21.15;14.38;;;;;;;;;;5099543;28;20043;-87
2021/01/15 14:03:39;;;;;;;18.65;14.20;;;;;;;;;;5082878;28;20303;-88
2021/01/15 14:06:06;;;;;;;15.40;13.30;;;;;;;;;;5093642;28;20146;-87
2021/01/15 14:08:32;;;;;;;24.00;16.17;;;;;;;;;;5098866;28;20457;-88
2021/01/15 14:10:58;;;;;;;17.67;13.05;;;;;;;;;;5103196;28;20034;-89
2021/01/15 14:13:24;;;;;;;19.20;13.10;;;;;;;;;;5090368;28;20321;-88
2021/01/15 14:15:51;;;;;;;18.55;13.35;;;;;;;;;;5082240;28;20028;-88
2021/01/15 14:18:19;;;;;;;16.98;12.90;;;;;;;;;;5105202;28;20123;-89
2021/01/15 14:20:45;;;;;;;19.70;12.93;;;;;;;;;;5083123;28;20095;-88
2021/01/15 14:23:12;;;;;;;17.83;13.52;;;;;;;;;;5090174;28;20043;-87
2021/01/15 14:25:38;;;;;;;17.02;14.23;;;;;;;;;;5083141;28;20169;-89
2021/01/15 14:28:04;;;;;;;17.60;13.60;;;;;;;;;;5080178;28;20036;-88
2021/01/15 14:30:30;;;;;;;21.40;14.65;;;;;;;;;;5089833;28;20075;-88
2021/01/15 14:33:00;;;;;;;18.27;13.68;;;;;;;;;;5097439;28;20135;-90
2021/01/15 14:35:28;;;;;;;18.33;12.45;;;;;;;;;;5085207;28;20041;-87
2021/01/15 14:37:56;;;;;;;17.15;11.65;;;;;;;;;;5096473;28;20047;-89